Terminal Aerodrome Forecast
Issued by NWS

Current Version | Previous Version | Text Only | Print | Product List | Glossary Off
Versions: 1 2 3 4 5 6 7 8 9 10 11 12 13 14 15 16 17 18 19 20 21 22 23 24 25 26

000
FTUS41 KRLX 050545 RRA
TAFCKB
TAF
KCKB 050545Z 0506/0606 00000KT 2SM BR SCT001
     FM051200 00000KT 3SM BR SCT001
     FM051300 00000KT 4SM BR SCT250
     FM051400 VRB03KT P6SM SCT250
     FM051800 VRB03KT P6SM BKN045=

USA.gov is the U.S. government's official web portal to all federal, state and local government web resources and services.